• Join FlightAware (Why Join?)
  • Login
  • US Flag 
10:13PM EDT


 

Airport Tracker/Info


-or-


 

Live Flight TrackerFlight Track Log ✈ N983CE ✈ 22-Aug-2013 ✈ KAOO - KPTK

Flight Track Log - Related Links

Times and Time Zones

All times are in EDT time to prevent confusion due to time zone crossing. See the N983CE flight status page for this flight to view local times or setup timezone preferences in your user account.

Time Position Orientation Groundspeed Altitude Reporting Facility
EDT Latitude Longitude Course Direction KTS MPH feet Rate Location/Type
02:44PM 40.3447 -78.3083 343° North 277 319 3,700  Level Cleveland Center
02:46PM 40.4331 -78.3436 343° North 252 290 8,400 2,880 Climbing Cleveland Center
02:47PM 40.4594 -78.4272 293° West 207 238 11,600 3,120 Climbing Cleveland Center
02:48PM 40.4947 -78.5217 296° West 250 288 14,600 2,820 Climbing Cleveland Center
02:49PM 40.5278 -78.6217 294° West 279 321 17,300 2,400 Climbing Cleveland Center
02:50PM 40.5647 -78.7244 295° West 298 343 19,500 2,160 Climbing Cleveland Center
02:51PM 40.6019 -78.8356 294° West 318 366 21,700 1,200 Climbing Cleveland Center
02:52PM 40.6497 -78.9575 297° West 337 388 22,000 120 Climbing Cleveland Center
02:53PM 40.6908 -79.0714 295° West 342 394 22,000 300 Level Cleveland Center
02:54PM 40.7525 -79.1661 311° West 342 394 22,600 1,320 Climbing Cleveland Center
02:55PM 40.8367 -79.2303 330° Northwest 335 386 24,700 1,680 Climbing Cleveland Center
02:56PM 40.9269 -79.2861 335° Northwest 346 398 26,000 600 Climbing Cleveland Center
02:57PM 41.0256 -79.3419 337° Northwest 360 414 26,000  Level Cleveland Center
02:58PM 41.1078 -79.4339 320° Northwest 374 430 26,000  Level Cleveland Center
02:59PM 41.1592 -79.5600 298° West 372 428 26,100 600 Climbing Cleveland Center
03:00PM 41.1872 -79.6753 288° West 367 422 27,300 900 Climbing Cleveland Center
03:01PM 41.2172 -79.8075 287° West 367 422 28,000 300 Climbing Cleveland Center
03:02PM 41.2494 -79.9453 287° West 378 435 28,000  Level Cleveland Center
03:03PM 41.2878 -80.0858 290° West 384 442 28,000  Level Cleveland Center
03:04PM 41.3236 -80.2153 290° West 384 442 28,000  Level Cleveland Center
03:05PM 41.3553 -80.3453 288° West 379 436 28,000  Level Cleveland Center
03:06PM 41.3867 -80.4781 288° West 370 426 28,000  Level Cleveland Center
03:07PM 41.4181 -80.6247 286° West 391 450 28,000  Level Cleveland Center
03:08PM 41.4492 -80.7742 286° West 409 471 28,000  Level Cleveland Center
03:09PM 41.4822 -80.9214 287° West 414 476 28,000  Level Cleveland Center
03:10PM 41.5192 -81.0767 288° West 429 494 28,000 -540 Level Cleveland Center
03:11PM 41.5517 -81.2214 287° West 429 494 27,000 -1,140 Descending Cleveland Center
03:12PM 41.5717 -81.3714 280° West 417 480 25,800 -1,020 Descending Cleveland Center
03:13PM 41.5664 -81.5267 267° West 407 468 25,000 -720 Descending Cleveland Center
03:14PM 41.5628 -81.6792 268° West 412 474 24,400 -600 Descending Cleveland Center
03:15PM 41.5989 -81.8242 288° West 412 474 23,800 -1,260 Descending Cleveland Center
03:16PM 41.6347 -81.9611 289° West 406 467 21,900 -2,160 Descending Cleveland Center
03:18PM 41.7152 -82.1197 291° West  Level FlightAware Approximate
03:18PM 41.7064 -82.2242 291° West 376 433 17,400  Level Cleveland Center
03:19PM 41.7364 -82.3194 293° West 369 425 15,500 -2,580 Descending Cleveland Center
03:20PM 41.7817 -82.4739 292° West 370 426 12,300 -2,340 Descending Cleveland Center
03:21PM 41.8217 -82.5864 296° West 364 419 10,400 -1,200 Descending Cleveland Center
03:22PM 41.8764 -82.6719 311° West 309 356 10,000 -900 Descending Cleveland Center
03:23PM 41.9825 -82.6753 359° North 274 315 8,400  Descending Cleveland Center
03:24PM 42.0283 -82.6825 353° North 256 295 10,000 -1,620 Climbing Cleveland Center
03:25PM 42.0967 -82.6986 350° North 256 295 5,800 -2,520 Descending Cleveland Center
03:26PM 42.1606 -82.7400 334° Northwest 256 295 5,000 -420 Descending Cleveland Center
03:27PM 42.2244 -82.7842 333° Northwest 256 295 5,000  Level Cleveland Center
03:28PM 42.2883 -82.8231 336° Northwest 256 295 5,000  Level Cleveland Center
03:29PM 42.3600 -82.8903 325° Northwest 247 284 5,000  Level Cleveland Center
03:30PM 42.4192 -82.9486 324° Northwest 242 278 5,000 -120 Level Cleveland Center
03:31PM 42.4703 -82.9983 324° Northwest 238 274 4,800 -480 Descending Cleveland Center
03:33PM 42.5333 -83.0683 321° Northwest 217 250 4,000 -420 Descending Cleveland Center
03:33PM 42.5656 -83.1206 310° West 204 235 4,000 -300 Level Cleveland Center
03:34PM 42.5978 -83.1753 309° West 210 242 3,500 -660 Descending Cleveland Center
03:36PM 42.6356 -83.2475 305° West 179 206 2,600 -600 Descending Cleveland Center
03:37PM 42.6592 -83.3078 298° West 157 181 2,200 -420 Descending Cleveland Center
03:38PM 42.6667 -83.3506 283° West 134 154 1,800 -480 Descending Cleveland Center